aviador You're here:

KACV Decoded Metar

ARCATA/EUREKA in CA, USA
Report Time2017-06-25 18:53:00
UTC Time2017-06-25 19:05:34
Flight Rules ifr IFR
Wind230° at 05 kt
W.Decomp.*RWY 19: 4.6 kt HW 2.0 kt RCW
RWY 14: 1.5 kt HW 4.8 kt RCW
W.Rank230° ranks 23
Current wind is below 230° avg. (6.3)
Visibility9999 m
Phenomena:N/A
Clouds:Overcast 006 Hf
Expected CloudBase > 400 ft AGL from Temp-Dew spread
Ceiling600 ft
Temp14°C (ISA -1)
Dew Point13°C (94% RH)
AAT13.1°C
QNH1017 hPa
Density Alt220 ft
Elevation220 ft
Report Wrong Elevation
Raw Report
METAR KACV 251853Z AUTO 23005KT 10SM OVC006 14/13 A3003 RMK AO2 CIG
005V009 SLP174 T01390128=

Extra information for KACV:More info

Metar Taf Metar & Taf Last 4 Metars F.Rules Stats Wind Profile Meteogram Temp Stats Airport Information Weather charts Add Link Nearby VenuesMetar ALERT Operation Metar Decoded Social comments

AIRNAV info for KACV